createdAt,value
2023-01-19T00:00:17.753Z,-2.20
2023-01-19T00:02:47.414Z,-2.20
2023-01-19T00:05:16.183Z,-2.10
2023-01-19T00:07:47.253Z,-2.10
2023-01-19T00:10:15.142Z,-2.10
2023-01-19T00:12:43.225Z,-2.20
2023-01-19T00:15:12.804Z,-2.20
2023-01-19T00:17:42.504Z,-2.10
2023-01-19T00:20:14.544Z,-2.20
2023-01-19T00:22:42.646Z,-2.10
2023-01-19T00:25:11.199Z,-2.10
2023-01-19T00:27:39.407Z,-2.10
2023-01-19T00:30:09.767Z,-2.10
2023-01-19T00:32:37.813Z,-2.00
2023-01-19T00:35:07.822Z,-2.00
2023-01-19T00:37:36.097Z,-2.00
2023-01-19T00:40:07.128Z,-2.00
2023-01-19T00:42:41.101Z,-1.90
2023-01-19T00:45:10.861Z,-2.00
2023-01-19T00:47:39.447Z,-1.90
2023-01-19T00:50:12.633Z,-1.90
2023-01-19T00:52:41.740Z,-2.00
2023-01-19T00:55:14.257Z,-2.00
2023-01-19T00:57:45.756Z,-2.10
2023-01-19T01:00:16.336Z,-2.20
2023-01-19T01:02:47.106Z,-2.30
2023-01-19T01:05:17.346Z,-2.20
2023-01-19T01:07:46.965Z,-2.10
2023-01-19T01:10:17.138Z,-2.30
2023-01-19T01:12:56.008Z,-2.30
2023-01-19T01:15:28.145Z,-2.30
2023-01-19T01:17:58.472Z,-2.30
2023-01-19T01:20:30.359Z,-2.40
2023-01-19T01:22:59.143Z,-2.50
2023-01-19T01:25:28.577Z,-2.40
2023-01-19T01:27:58.053Z,-2.40
2023-01-19T01:30:26.129Z,-2.40
2023-01-19T01:32:54.141Z,-2.40
2023-01-19T01:35:22.071Z,-2.50
2023-01-19T01:37:58.641Z,-2.50
2023-01-19T01:40:26.953Z,-2.60
2023-01-19T01:42:55.175Z,-2.80
2023-01-19T01:45:32.930Z,-2.80
2023-01-19T01:48:08.784Z,-2.80
2023-01-19T01:51:01.498Z,-2.80
2023-01-19T01:53:31.894Z,-2.80
2023-01-19T01:56:01.124Z,-2.90
2023-01-19T01:58:32.059Z,-2.90
2023-01-19T02:01:17.737Z,-3.00
2023-01-19T02:03:45.901Z,-3.00
2023-01-19T02:06:15.695Z,-3.10
2023-01-19T02:09:06.594Z,-3.00
2023-01-19T02:11:55.073Z,-3.00
2023-01-19T02:14:23.577Z,-2.90
2023-01-19T02:16:51.816Z,-2.70
2023-01-19T02:19:27.399Z,-2.70
2023-01-19T02:22:04.926Z,-2.70
2023-01-19T02:24:37.669Z,-2.70
2023-01-19T02:27:07.623Z,-2.60
2023-01-19T02:29:36.371Z,-2.60
2023-01-19T02:32:05.714Z,-2.70
2023-01-19T02:34:34.258Z,-2.60
2023-01-19T02:37:06.872Z,-2.50
2023-01-19T02:39:40.057Z,-2.40
2023-01-19T02:42:13.562Z,-2.40
2023-01-19T02:44:44.689Z,-2.50
2023-01-19T02:47:13.456Z,-2.50
2023-01-19T02:49:41.625Z,-2.40
2023-01-19T02:52:15.895Z,-2.20
2023-01-19T02:54:58.873Z,-2.10
2023-01-19T02:57:49.043Z,-2.00
2023-01-19T03:00:28.014Z,-1.80
2023-01-19T03:03:13.172Z,-1.70
2023-01-19T03:06:00.400Z,-1.60
2023-01-19T03:08:37.907Z,-1.50
2023-01-19T03:11:11.176Z,-1.40
2023-01-19T03:13:46.013Z,-1.40
2023-01-19T03:16:27.583Z,-1.30
2023-01-19T03:18:59.639Z,-1.30
2023-01-19T03:21:29.959Z,-1.30
2023-01-19T03:24:02.845Z,-1.30
2023-01-19T03:26:37.259Z,-1.30
2023-01-19T03:29:07.047Z,-1.20
2023-01-19T03:31:35.887Z,-1.20
2023-01-19T03:34:08.988Z,-1.20
2023-01-19T03:36:41.616Z,-1.10
2023-01-19T03:39:12.085Z,-1.10
2023-01-19T03:41:44.184Z,-1.10
2023-01-19T03:44:13.218Z,-1.10
2023-01-19T03:46:41.906Z,-1.10
2023-01-19T03:49:10.451Z,-1.00
2023-01-19T03:51:39.733Z,-1.00
2023-01-19T03:54:12.969Z,-1.00
2023-01-19T03:56:43.767Z,-1.00
2023-01-19T03:59:12.783Z,-1.00
2023-01-19T04:01:41.349Z,-1.10
2023-01-19T04:04:09.512Z,-1.10
2023-01-19T04:06:37.375Z,-1.10
2023-01-19T04:09:05.467Z,-1.10
2023-01-19T04:11:33.509Z,-1.00
2023-01-19T04:14:02.754Z,-0.90
2023-01-19T04:16:30.820Z,-0.90
2023-01-19T04:19:00.478Z,-1.00
2023-01-19T04:21:28.791Z,-0.90
2023-01-19T04:23:56.853Z,-0.90
2023-01-19T04:26:24.981Z,-0.90
2023-01-19T04:28:53.079Z,-0.90
2023-01-19T04:31:23.396Z,-0.90
2023-01-19T04:33:51.379Z,-0.90
2023-01-19T04:36:19.355Z,-0.80
2023-01-19T04:38:48.651Z,-0.80
2023-01-19T04:41:18.690Z,-0.70
2023-01-19T04:43:47.731Z,-0.70
2023-01-19T04:46:18.353Z,-0.70
2023-01-19T04:48:47.874Z,-0.70
2023-01-19T04:51:16.089Z,-0.70
2023-01-19T04:53:44.087Z,-0.60
2023-01-19T04:56:12.460Z,-0.60
2023-01-19T04:58:40.583Z,-0.60
2023-01-19T05:01:11.632Z,-0.60
2023-01-19T05:03:40.322Z,-0.50
2023-01-19T05:06:09.831Z,-0.50
2023-01-19T05:08:37.960Z,-0.50
2023-01-19T05:11:06.700Z,-0.50
2023-01-19T05:13:35.027Z,-0.50
2023-01-19T05:16:03.513Z,-0.50
2023-01-19T05:18:35.893Z,-0.50
2023-01-19T05:21:04.090Z,-0.50
2023-01-19T05:23:33.595Z,-0.50
2023-01-19T05:26:02.750Z,-0.50
2023-01-19T05:28:38.776Z,-0.50
2023-01-19T05:31:12.188Z,-0.40
2023-01-19T05:33:43.191Z,-0.40
2023-01-19T05:36:11.501Z,-0.40
2023-01-19T05:38:44.965Z,-0.40
2023-01-19T05:41:13.679Z,-0.40
2023-01-19T05:43:44.519Z,-0.40
2023-01-19T05:46:12.831Z,-0.40
2023-01-19T05:48:41.006Z,-0.50
2023-01-19T05:51:09.125Z,-0.40
2023-01-19T05:53:43.540Z,-0.40
2023-01-19T05:56:12.354Z,-0.40
2023-01-19T05:58:43.457Z,-0.40
2023-01-19T06:01:12.104Z,-0.40
2023-01-19T06:03:41.119Z,-0.40
2023-01-19T06:06:12.649Z,-0.40
2023-01-19T06:08:42.396Z,-0.40
2023-01-19T06:13:41.374Z,-0.40
2023-01-19T06:16:10.474Z,-0.40
2023-01-19T06:18:38.663Z,-0.50
2023-01-19T06:21:09.997Z,-0.40
2023-01-19T06:23:38.559Z,-0.40
2023-01-19T06:26:11.040Z,-0.40
2023-01-19T06:28:40.468Z,-0.40
2023-01-19T06:31:10.710Z,-0.40
2023-01-19T06:33:38.575Z,-0.40
2023-01-19T06:36:09.463Z,-0.40
2023-01-19T06:38:37.689Z,-0.40
2023-01-19T06:41:12.881Z,-0.40
2023-01-19T06:43:41.048Z,-0.40
2023-01-19T06:46:09.004Z,-0.30
2023-01-19T06:48:37.410Z,-0.30
2023-01-19T06:51:06.012Z,-0.30
2023-01-19T06:53:34.424Z,-0.30
2023-01-19T06:56:08.086Z,-0.30
2023-01-19T06:58:36.667Z,-0.30
2023-01-19T07:01:05.834Z,-0.30
2023-01-19T07:03:35.561Z,-0.30
2023-01-19T07:06:04.182Z,-0.30
2023-01-19T07:08:32.114Z,-0.30
2023-01-19T07:11:25.691Z,-0.30
2023-01-19T07:13:51.755Z,-0.30
2023-01-19T07:16:20.014Z,-0.40
2023-01-19T07:18:51.429Z,-0.40
2023-01-19T07:21:20.115Z,-0.40
2023-01-19T07:23:52.224Z,-0.40
2023-01-19T07:26:21.562Z,-0.50
2023-01-19T07:28:52.912Z,-0.50
2023-01-19T07:31:21.704Z,-0.50
2023-01-19T07:33:50.068Z,-0.40
2023-01-19T07:36:18.224Z,-0.30
2023-01-19T07:38:46.216Z,-0.30
2023-01-19T07:41:14.310Z,-0.30
2023-01-19T07:43:42.611Z,-0.30
2023-01-19T07:46:12.218Z,-0.20
2023-01-19T07:48:44.431Z,-0.20
2023-01-19T07:51:17.983Z,-0.20
2023-01-19T07:53:46.663Z,-0.20
2023-01-19T07:56:14.682Z,-0.10
2023-01-19T07:58:42.681Z,-0.10
2023-01-19T08:01:13.644Z,-0.10
2023-01-19T08:03:42.393Z,0.00
2023-01-19T08:06:21.777Z,0.00
2023-01-19T08:08:50.415Z,0.00
2023-01-19T08:11:18.634Z,-0.10
2023-01-19T08:13:46.870Z,-0.10
2023-01-19T08:16:16.418Z,-0.10
2023-01-19T08:18:44.234Z,-0.10
2023-01-19T08:21:12.757Z,-0.10
2023-01-19T08:23:40.761Z,-0.20
2023-01-19T08:26:20.122Z,-0.20
2023-01-19T08:28:48.073Z,-0.10
2023-01-19T08:31:21.782Z,-0.10
2023-01-19T08:33:51.748Z,0.00
2023-01-19T08:36:20.340Z,0.10
2023-01-19T08:38:48.830Z,0.20
2023-01-19T08:41:17.516Z,0.30
2023-01-19T08:43:45.631Z,0.30
2023-01-19T08:46:17.054Z,0.40
2023-01-19T08:48:48.196Z,0.50
2023-01-19T08:51:16.395Z,0.50
2023-01-19T08:53:47.660Z,0.50
2023-01-19T08:56:15.969Z,0.70
2023-01-19T08:58:46.736Z,0.40
2023-01-19T09:01:18.760Z,0.80
2023-01-19T09:03:48.415Z,0.80
2023-01-19T09:06:19.323Z,0.80
2023-01-19T09:08:47.936Z,0.80
2023-01-19T09:11:18.850Z,0.80
2023-01-19T09:13:47.200Z,0.90
2023-01-19T09:16:17.695Z,1.00
2023-01-19T09:18:47.364Z,1.00
2023-01-19T09:21:15.851Z,1.10
2023-01-19T09:23:46.131Z,1.10
2023-01-19T09:26:14.570Z,1.10
2023-01-19T09:28:42.694Z,1.20
2023-01-19T09:31:11.120Z,1.30
2023-01-19T09:33:39.407Z,1.40
2023-01-19T09:36:09.554Z,1.30
2023-01-19T09:38:39.526Z,1.40
2023-01-19T09:41:18.745Z,1.50
2023-01-19T09:43:50.866Z,1.70
2023-01-19T09:46:26.631Z,1.80
2023-01-19T09:48:58.172Z,1.80
2023-01-19T09:51:33.898Z,2.00
2023-01-19T09:54:09.235Z,2.10
2023-01-19T09:56:37.840Z,2.20
2023-01-19T09:59:20.608Z,2.20
2023-01-19T10:02:05.814Z,2.20
2023-01-19T10:04:39.220Z,2.40
2023-01-19T10:07:14.309Z,2.40
2023-01-19T10:10:11.686Z,2.40
2023-01-19T10:12:51.063Z,2.50
2023-01-19T10:15:29.362Z,2.60
2023-01-19T10:18:12.778Z,2.60
2023-01-19T10:20:46.117Z,2.60
2023-01-19T10:23:26.112Z,2.50
2023-01-19T10:25:55.960Z,2.50
2023-01-19T10:28:27.001Z,2.50
2023-01-19T10:30:56.749Z,2.40
2023-01-19T10:33:25.350Z,2.40
2023-01-19T10:35:53.341Z,2.50
2023-01-19T10:38:22.949Z,2.70
2023-01-19T10:40:59.818Z,2.70
2023-01-19T10:43:39.824Z,2.60
2023-01-19T10:46:09.443Z,2.50
2023-01-19T10:48:42.125Z,2.40
2023-01-19T10:51:11.931Z,2.60
2023-01-19T10:53:45.249Z,2.60
2023-01-19T10:56:17.684Z,2.30
2023-01-19T10:58:47.476Z,2.20
2023-01-19T11:01:18.773Z,2.20
2023-01-19T11:03:47.417Z,2.20
2023-01-19T11:06:29.601Z,2.20
2023-01-19T11:09:17.046Z,2.20
2023-01-19T11:11:48.254Z,2.10
2023-01-19T11:14:21.444Z,2.10
2023-01-19T11:16:56.108Z,2.00
2023-01-19T11:19:28.380Z,1.90
2023-01-19T11:22:11.798Z,2.10
2023-01-19T11:24:44.908Z,2.10
2023-01-19T11:27:18.313Z,1.90
2023-01-19T11:29:50.853Z,2.10
2023-01-19T11:32:25.016Z,2.10
2023-01-19T11:34:54.188Z,2.00
2023-01-19T11:37:34.607Z,2.00
2023-01-19T11:40:09.300Z,1.80
2023-01-19T11:42:37.655Z,1.80
2023-01-19T11:45:14.057Z,1.60
2023-01-19T11:47:45.362Z,1.50
2023-01-19T11:50:22.350Z,1.30
2023-01-19T11:52:55.820Z,1.30
2023-01-19T11:55:33.975Z,1.10
2023-01-19T11:58:05.508Z,1.10
2023-01-19T12:00:40.473Z,1.00
2023-01-19T12:03:14.331Z,0.90
2023-01-19T12:05:48.401Z,0.80
2023-01-19T12:08:21.490Z,0.90
2023-01-19T12:10:54.013Z,0.90
2023-01-19T12:13:24.104Z,0.90
2023-01-19T12:15:57.892Z,0.80
2023-01-19T12:18:29.651Z,0.80
2023-01-19T12:20:58.698Z,0.80
2023-01-19T12:23:48.487Z,0.80
2023-01-19T12:26:29.266Z,0.80
2023-01-19T12:29:01.699Z,0.70
2023-01-19T12:31:29.833Z,0.70
2023-01-19T12:34:36.059Z,0.90
2023-01-19T12:37:07.827Z,0.80
2023-01-19T12:39:36.541Z,0.80
2023-01-19T12:42:18.542Z,0.90
2023-01-19T12:44:49.150Z,0.90
2023-01-19T12:47:24.271Z,0.80
2023-01-19T12:49:55.407Z,0.80
2023-01-19T12:52:28.733Z,0.80
2023-01-19T12:55:03.530Z,0.70
2023-01-19T12:57:36.110Z,0.70
2023-01-19T13:00:26.121Z,0.60
2023-01-19T13:02:59.658Z,0.60
2023-01-19T13:05:53.510Z,0.60
2023-01-19T13:08:31.193Z,0.60
2023-01-19T13:11:25.977Z,0.50
2023-01-19T13:14:37.203Z,0.50
2023-01-19T13:17:23.160Z,0.50
2023-01-19T13:20:06.939Z,0.50
2023-01-19T13:23:19.931Z,0.40
2023-01-19T13:25:54.628Z,0.40
2023-01-19T13:28:31.963Z,0.40
2023-01-19T13:31:02.742Z,0.40
2023-01-19T13:33:46.244Z,0.40
2023-01-19T13:36:26.281Z,0.40
2023-01-19T13:38:58.252Z,0.40
2023-01-19T13:41:30.694Z,0.40
2023-01-19T13:44:02.962Z,0.40
2023-01-19T13:46:33.976Z,0.40
2023-01-19T13:49:10.874Z,0.40
2023-01-19T13:51:39.061Z,0.40
2023-01-19T13:54:14.884Z,0.50
2023-01-19T13:56:50.199Z,0.40
2023-01-19T13:59:18.439Z,0.50
2023-01-19T14:01:49.143Z,0.50
2023-01-19T14:04:30.671Z,0.50
2023-01-19T14:07:01.789Z,0.60
2023-01-19T14:09:29.765Z,0.50
2023-01-19T14:12:11.613Z,0.50
2023-01-19T14:14:39.622Z,0.50
2023-01-19T14:17:24.463Z,0.50
2023-01-19T14:19:56.555Z,0.40
2023-01-19T14:22:40.162Z,0.40
2023-01-19T14:25:29.084Z,0.40
2023-01-19T14:28:35.328Z,0.30
2023-01-19T14:31:05.646Z,0.40
2023-01-19T14:33:43.485Z,0.40
2023-01-19T14:36:27.346Z,0.40
2023-01-19T14:38:57.481Z,0.40
2023-01-19T14:41:30.220Z,0.40
2023-01-19T14:44:00.112Z,0.30
2023-01-19T14:46:28.477Z,0.30
2023-01-19T14:49:02.496Z,0.30
2023-01-19T14:51:32.773Z,0.30
2023-01-19T14:54:02.976Z,0.30
2023-01-19T14:56:32.833Z,0.30
2023-01-19T14:59:05.826Z,0.30
2023-01-19T15:01:34.209Z,0.30
2023-01-19T15:04:02.330Z,0.30
2023-01-19T15:06:33.467Z,0.30
2023-01-19T15:09:01.645Z,0.30
2023-01-19T15:11:32.877Z,0.30
2023-01-19T15:14:01.792Z,0.30
2023-01-19T15:16:33.073Z,0.30
2023-01-19T15:19:04.994Z,0.30
2023-01-19T15:21:34.439Z,0.30
2023-01-19T15:24:11.582Z,0.30
2023-01-19T15:26:41.190Z,0.30
2023-01-19T15:29:23.053Z,0.30
2023-01-19T15:31:51.739Z,0.30
2023-01-19T15:34:20.099Z,0.30
2023-01-19T15:36:55.317Z,0.30
2023-01-19T15:39:23.762Z,0.30
2023-01-19T15:41:52.455Z,0.30
2023-01-19T15:44:29.541Z,0.30
2023-01-19T15:46:58.715Z,0.30
2023-01-19T15:49:34.629Z,0.30
2023-01-19T15:52:07.590Z,0.30
2023-01-19T15:54:38.434Z,0.30
2023-01-19T15:57:13.086Z,0.30
2023-01-19T15:59:49.490Z,0.30
2023-01-19T16:02:30.944Z,0.30
2023-01-19T16:04:59.495Z,0.30
2023-01-19T16:07:39.947Z,0.30
2023-01-19T16:10:17.452Z,0.30
2023-01-19T16:12:53.143Z,0.30
2023-01-19T16:15:25.574Z,0.30
2023-01-19T16:17:55.504Z,0.30
2023-01-19T16:20:26.370Z,0.30
2023-01-19T16:22:58.595Z,0.30
2023-01-19T16:25:35.960Z,0.20
2023-01-19T16:28:04.599Z,0.30
2023-01-19T16:30:36.238Z,0.30
2023-01-19T16:33:05.534Z,0.30
2023-01-19T16:35:33.782Z,0.30
2023-01-19T16:38:04.409Z,0.20
2023-01-19T16:40:35.140Z,0.20
2023-01-19T16:43:06.294Z,0.20
2023-01-19T16:45:37.224Z,0.30
2023-01-19T16:48:11.338Z,0.30
2023-01-19T16:51:15.546Z,0.30
2023-01-19T16:53:45.349Z,0.30
2023-01-19T16:56:19.829Z,0.30
2023-01-19T16:58:53.686Z,0.30
2023-01-19T17:01:22.622Z,0.20
2023-01-19T17:03:51.841Z,0.30
2023-01-19T17:06:24.520Z,0.30
2023-01-19T17:08:56.774Z,0.20
2023-01-19T17:11:26.328Z,0.20
2023-01-19T17:13:55.927Z,0.20
2023-01-19T17:16:25.022Z,0.20
2023-01-19T17:18:53.854Z,0.30
2023-01-19T17:21:22.424Z,0.30
2023-01-19T17:23:53.555Z,0.30
2023-01-19T17:26:27.091Z,0.30
2023-01-19T17:28:59.898Z,0.20
2023-01-19T17:31:28.469Z,0.20
2023-01-19T17:33:56.832Z,0.30
2023-01-19T17:36:27.627Z,0.30
2023-01-19T17:38:57.522Z,0.30
2023-01-19T17:41:28.867Z,0.30
2023-01-19T17:43:57.674Z,0.30
2023-01-19T17:46:27.721Z,0.30
2023-01-19T17:48:59.956Z,0.30
2023-01-19T17:51:29.725Z,0.20
2023-01-19T17:53:58.729Z,0.30
2023-01-19T17:56:37.016Z,0.30
2023-01-19T17:59:08.028Z,0.30
2023-01-19T18:01:39.801Z,0.30
2023-01-19T18:04:09.532Z,0.30
2023-01-19T18:06:38.759Z,0.30
2023-01-19T18:09:07.485Z,0.30
2023-01-19T18:11:38.212Z,0.30
2023-01-19T18:14:06.751Z,0.30
2023-01-19T18:16:34.795Z,0.20
2023-01-19T18:19:02.901Z,0.30
2023-01-19T18:21:31.377Z,0.40
2023-01-19T18:24:02.600Z,0.40
2023-01-19T18:26:32.893Z,0.30
2023-01-19T18:29:03.107Z,0.30
2023-01-19T18:31:32.865Z,0.30
2023-01-19T18:34:01.612Z,0.30
2023-01-19T18:36:31.992Z,0.30
2023-01-19T18:39:03.474Z,0.30
2023-01-19T18:41:31.778Z,0.30
2023-01-19T18:44:00.622Z,0.30
2023-01-19T18:46:30.484Z,0.30
2023-01-19T18:48:58.703Z,0.30
2023-01-19T18:51:27.272Z,0.30
2023-01-19T18:53:55.468Z,0.30
2023-01-19T18:56:23.707Z,0.30
2023-01-19T18:58:54.926Z,0.30
2023-01-19T19:01:32.869Z,0.30
2023-01-19T19:04:03.445Z,0.30
2023-01-19T19:06:32.049Z,0.30
2023-01-19T19:09:00.347Z,0.40
2023-01-19T19:11:29.052Z,0.50
2023-01-19T19:13:58.773Z,0.60
2023-01-19T19:16:27.322Z,0.50
2023-01-19T19:18:57.185Z,0.50
2023-01-19T19:21:26.277Z,0.60
2023-01-19T19:23:55.642Z,0.50
2023-01-19T19:26:25.094Z,0.50
2023-01-19T19:28:53.425Z,0.40
2023-01-19T19:31:23.134Z,0.40
2023-01-19T19:33:52.072Z,0.40
2023-01-19T19:36:23.915Z,0.40
2023-01-19T19:38:52.571Z,0.50
2023-01-19T19:41:23.204Z,0.40
2023-01-19T19:43:51.883Z,0.40
2023-01-19T19:46:21.688Z,0.50
2023-01-19T19:48:50.843Z,0.60
2023-01-19T19:51:23.647Z,0.50
2023-01-19T19:54:07.477Z,0.40
2023-01-19T19:56:38.803Z,0.50
2023-01-19T19:59:16.942Z,0.40
2023-01-19T20:01:59.902Z,0.40
2023-01-19T20:04:28.026Z,0.30
2023-01-19T20:06:59.535Z,0.40
2023-01-19T20:09:27.797Z,0.40
2023-01-19T20:11:57.884Z,0.40
2023-01-19T20:14:26.152Z,0.40
2023-01-19T20:16:54.454Z,0.40
2023-01-19T20:19:24.968Z,0.40
2023-01-19T20:22:01.657Z,0.40
2023-01-19T20:24:31.927Z,0.30
2023-01-19T20:27:00.015Z,0.30
2023-01-19T20:29:29.175Z,0.30
2023-01-19T20:31:59.088Z,0.30
2023-01-19T20:34:33.805Z,0.30
2023-01-19T20:37:11.338Z,0.40
2023-01-19T20:39:42.287Z,0.40
2023-01-19T20:42:11.628Z,0.50
2023-01-19T20:44:39.931Z,0.50
2023-01-19T20:47:10.599Z,0.50
2023-01-19T20:49:41.543Z,0.40
2023-01-19T20:52:11.027Z,0.40
2023-01-19T20:54:41.467Z,0.40
2023-01-19T20:57:09.561Z,0.40
2023-01-19T20:59:38.842Z,0.40
2023-01-19T21:02:12.523Z,0.40
2023-01-19T21:04:40.807Z,0.40
2023-01-19T21:07:10.439Z,0.30
2023-01-19T21:09:41.118Z,0.30
2023-01-19T21:12:09.856Z,0.30
2023-01-19T21:14:38.452Z,0.30
2023-01-19T21:17:06.541Z,0.30
2023-01-19T21:19:34.901Z,0.40
2023-01-19T21:22:03.198Z,0.40
2023-01-19T21:24:32.740Z,0.40
2023-01-19T21:27:02.187Z,0.40
2023-01-19T21:29:30.553Z,0.40
2023-01-19T21:31:58.529Z,0.50
2023-01-19T21:34:26.999Z,0.40
2023-01-19T21:36:55.124Z,0.40
2023-01-19T21:39:23.341Z,0.30
2023-01-19T21:41:53.228Z,0.40
2023-01-19T21:44:21.667Z,0.40
2023-01-19T21:46:52.262Z,0.40
2023-01-19T21:49:21.592Z,0.40
2023-01-19T21:51:50.479Z,0.40
2023-01-19T21:54:19.094Z,0.50
2023-01-19T21:56:47.247Z,0.50
2023-01-19T21:59:18.511Z,0.60
2023-01-19T22:01:48.316Z,0.60
2023-01-19T22:04:16.583Z,0.50
2023-01-19T22:06:44.562Z,0.40
2023-01-19T22:09:12.796Z,0.40
2023-01-19T22:11:40.776Z,0.30
2023-01-19T22:14:08.873Z,0.20
2023-01-19T22:16:38.322Z,0.20
2023-01-19T22:19:08.081Z,0.20
2023-01-19T22:21:36.671Z,0.20
2023-01-19T22:24:05.593Z,0.20
2023-01-19T22:26:35.021Z,0.30
2023-01-19T22:29:04.268Z,0.40
2023-01-19T22:31:34.642Z,0.40
2023-01-19T22:34:04.203Z,0.50
2023-01-19T22:36:34.469Z,0.50
2023-01-19T22:39:03.914Z,0.50
2023-01-19T22:41:33.956Z,0.50
2023-01-19T22:44:03.304Z,0.40
2023-01-19T22:46:33.533Z,0.30
2023-01-19T22:49:03.285Z,0.30
2023-01-19T22:51:34.525Z,0.30
2023-01-19T22:54:05.254Z,0.20
2023-01-19T22:56:34.950Z,0.30
2023-01-19T22:59:04.565Z,0.30
2023-01-19T23:01:34.821Z,0.20
2023-01-19T23:04:06.235Z,0.20
2023-01-19T23:06:35.861Z,0.10
2023-01-19T23:09:09.790Z,0.00
2023-01-19T23:11:39.684Z,0.00
2023-01-19T23:14:09.797Z,-0.10
2023-01-19T23:16:37.954Z,-0.10
2023-01-19T23:19:07.720Z,-0.20
2023-01-19T23:21:38.712Z,-0.20
2023-01-19T23:24:07.295Z,-0.30
2023-01-19T23:26:40.415Z,-0.30
2023-01-19T23:29:11.125Z,-0.30
2023-01-19T23:31:43.474Z,-0.30
2023-01-19T23:34:14.268Z,-0.30
2023-01-19T23:36:43.524Z,-0.30
2023-01-19T23:39:17.876Z,-0.20
2023-01-19T23:41:46.136Z,-0.20
2023-01-19T23:44:14.743Z,-0.30
2023-01-19T23:46:43.833Z,-0.30
2023-01-19T23:49:13.816Z,-0.30
2023-01-19T23:51:42.573Z,-0.30
2023-01-19T23:54:12.336Z,-0.30
2023-01-19T23:56:42.666Z,-0.30
2023-01-19T23:59:12.517Z,-0.30
